createdAt,value
2022-07-28T00:01:12.619Z,1.17
2022-07-28T00:03:40.225Z,1.10
2022-07-28T00:06:06.816Z,0.80
2022-07-28T00:08:33.503Z,0.90
2022-07-28T00:11:00.121Z,1.00
2022-07-28T00:13:26.690Z,0.90
2022-07-28T00:15:53.222Z,0.90
2022-07-28T00:18:22.765Z,0.80
2022-07-28T00:20:49.367Z,1.00
2022-07-28T00:23:15.881Z,0.93
2022-07-28T00:25:44.799Z,0.80
2022-07-28T00:28:11.285Z,0.80
2022-07-28T00:30:39.818Z,1.10
2022-07-28T00:33:12.104Z,1.00
2022-07-28T00:35:52.611Z,0.95
2022-07-28T00:38:23.373Z,0.93
2022-07-28T00:41:09.008Z,1.00
2022-07-28T00:43:39.706Z,1.15
2022-07-28T00:46:10.383Z,0.95
2022-07-28T00:48:41.175Z,0.80
2022-07-28T00:51:09.402Z,1.10
2022-07-28T00:53:37.511Z,1.10
2022-07-28T00:56:06.644Z,1.00
2022-07-28T00:58:34.921Z,1.20
2022-07-28T01:01:01.555Z,1.00
2022-07-28T01:03:32.785Z,1.02
2022-07-28T01:06:22.633Z,1.05
2022-07-28T01:09:22.934Z,0.93
2022-07-28T01:12:17.022Z,1.40
2022-07-28T01:15:09.078Z,0.85
2022-07-28T01:17:42.041Z,1.20
2022-07-28T01:20:12.784Z,1.00
2022-07-28T01:22:53.309Z,0.98
2022-07-28T01:25:24.472Z,1.00
2022-07-28T01:28:02.965Z,1.00
2022-07-28T01:30:36.995Z,1.00
2022-07-28T01:33:17.267Z,0.90
2022-07-28T01:35:50.370Z,0.80
2022-07-28T01:38:18.750Z,0.90
2022-07-28T01:40:57.058Z,1.00
2022-07-28T01:43:26.474Z,0.93
2022-07-28T01:48:43.280Z,0.95
2022-07-28T01:51:10.212Z,1.38
2022-07-28T01:53:39.964Z,1.10
2022-07-28T01:56:07.562Z,0.93
2022-07-28T01:58:42.544Z,1.00
2022-07-28T02:01:10.563Z,1.00
2022-07-28T02:03:38.798Z,0.82
2022-07-28T02:06:19.755Z,0.70
2022-07-28T02:08:49.885Z,1.00
2022-07-28T02:11:35.265Z,1.15
2022-07-28T02:14:02.606Z,1.20
2022-07-28T02:16:33.533Z,0.90
2022-07-28T02:19:01.056Z,1.10
2022-07-28T02:21:30.181Z,0.80
2022-07-28T02:23:58.695Z,0.95
2022-07-28T02:26:32.923Z,1.07
2022-07-28T02:29:01.787Z,1.10
2022-07-28T02:31:44.087Z,1.02
2022-07-28T02:34:12.888Z,1.08
2022-07-28T02:36:51.632Z,0.80
2022-07-28T02:39:22.361Z,1.20
2022-07-28T02:41:51.621Z,1.00
2022-07-28T02:44:21.954Z,1.05
2022-07-28T02:46:52.097Z,0.93
2022-07-28T02:49:24.187Z,1.40
2022-07-28T02:51:52.729Z,1.10
2022-07-28T02:54:20.336Z,0.90
2022-07-28T02:56:53.354Z,1.05
2022-07-28T02:59:22.708Z,0.80
2022-07-28T03:01:52.182Z,0.95
2022-07-28T03:04:39.034Z,1.05
2022-07-28T03:07:13.720Z,1.48
2022-07-28T03:09:42.127Z,0.90
2022-07-28T03:12:09.849Z,1.10
2022-07-28T03:14:41.040Z,1.10
2022-07-28T03:17:11.779Z,0.90
2022-07-28T03:19:41.112Z,0.90
2022-07-28T03:24:42.612Z,1.20
2022-07-28T03:27:20.814Z,1.27
2022-07-28T03:29:51.036Z,1.10
2022-07-28T03:32:21.191Z,1.00
2022-07-28T03:34:48.576Z,1.20
2022-07-28T03:37:20.769Z,1.25
2022-07-28T03:39:50.713Z,1.40
2022-07-28T03:42:19.061Z,1.10
2022-07-28T03:44:50.917Z,1.00
2022-07-28T03:49:54.870Z,1.00
2022-07-28T03:52:22.599Z,1.10
2022-07-28T03:54:52.785Z,1.10
2022-07-28T03:57:19.894Z,1.25
2022-07-28T03:59:49.943Z,1.00
2022-07-28T04:02:19.630Z,1.00
2022-07-28T04:04:46.299Z,1.10
2022-07-28T04:07:13.505Z,1.13
2022-07-28T04:09:43.237Z,1.08
2022-07-28T04:12:10.014Z,1.02
2022-07-28T04:14:36.620Z,0.95
2022-07-28T04:17:03.219Z,1.20
2022-07-28T04:19:29.832Z,0.95
2022-07-28T04:21:56.450Z,1.20
2022-07-28T04:24:23.326Z,0.90
2022-07-28T04:26:50.117Z,0.90
2022-07-28T04:29:27.530Z,1.00
2022-07-28T04:31:54.773Z,1.02
2022-07-28T04:34:21.357Z,1.15
2022-07-28T04:36:47.962Z,1.00
2022-07-28T04:39:14.686Z,1.00
2022-07-28T04:41:41.774Z,0.80
2022-07-28T04:46:51.184Z,1.00
2022-07-28T04:49:20.223Z,0.90
2022-07-28T04:51:53.313Z,1.13
2022-07-28T04:54:26.683Z,0.90
2022-07-28T04:56:53.471Z,1.10
2022-07-28T04:59:20.049Z,1.48
2022-07-28T05:04:35.687Z,1.30
2022-07-28T05:23:59.421Z,0.98
2022-07-28T05:26:28.434Z,1.00
2022-07-28T05:28:55.404Z,1.30
2022-07-28T05:31:21.970Z,1.00
2022-07-28T05:33:48.510Z,1.08
2022-07-28T05:36:15.577Z,1.08
2022-07-28T05:38:42.119Z,0.98
2022-07-28T05:41:08.937Z,1.27
2022-07-28T05:43:37.807Z,1.10
2022-07-28T05:46:05.615Z,1.00
2022-07-28T05:48:32.100Z,1.00
2022-07-28T05:50:58.589Z,0.90
2022-07-28T05:53:25.038Z,1.15
2022-07-28T05:56:00.543Z,1.05
2022-07-28T05:58:28.628Z,1.23
2022-07-28T06:00:58.559Z,1.55
2022-07-28T06:03:25.048Z,1.05
2022-07-28T06:06:00.761Z,1.27
2022-07-28T06:11:11.342Z,1.13
2022-07-28T06:13:38.847Z,1.27
2022-07-28T06:16:12.614Z,1.05
2022-07-28T06:18:39.773Z,1.27
2022-07-28T06:21:07.282Z,1.00
2022-07-28T06:23:33.803Z,1.17
2022-07-28T06:26:00.634Z,1.00
2022-07-28T06:28:27.090Z,0.90
2022-07-28T06:30:53.789Z,1.40
2022-07-28T06:33:20.544Z,1.08
2022-07-28T06:35:51.454Z,1.40
2022-07-28T06:38:20.152Z,1.30
2022-07-28T06:40:47.097Z,1.10
2022-07-28T06:43:14.605Z,1.15
2022-07-28T06:45:41.291Z,1.30
2022-07-28T06:48:08.982Z,1.30
2022-07-28T06:50:39.093Z,1.20
2022-07-28T06:53:05.755Z,1.20
2022-07-28T06:55:35.457Z,1.20
2022-07-28T06:58:05.309Z,1.20
2022-07-28T07:00:32.071Z,1.05
2022-07-28T07:03:00.611Z,1.02
2022-07-28T07:05:29.865Z,1.08
2022-07-28T07:07:56.320Z,1.13
2022-07-28T07:10:22.866Z,1.50
2022-07-28T07:12:49.413Z,1.50
2022-07-28T07:15:15.865Z,1.33
2022-07-28T07:17:42.397Z,1.20
2022-07-28T07:20:09.577Z,1.30
2022-07-28T07:22:42.051Z,1.63
2022-07-28T07:25:10.241Z,1.60
2022-07-28T07:27:36.762Z,1.10
2022-07-28T07:30:05.520Z,1.30
2022-07-28T07:32:31.990Z,1.40
2022-07-28T07:34:58.475Z,1.60
2022-07-28T07:37:24.971Z,1.58
2022-07-28T07:39:51.573Z,1.40
2022-07-28T07:42:18.204Z,1.10
2022-07-28T07:44:50.127Z,1.60
2022-07-28T07:47:17.100Z,1.40
2022-07-28T07:49:45.989Z,1.65
2022-07-28T07:54:39.353Z,1.67
2022-07-28T07:57:05.799Z,1.52
2022-07-28T07:59:32.257Z,1.60
2022-07-28T08:01:58.755Z,1.48
2022-07-28T08:04:25.521Z,1.55
2022-07-28T08:06:52.791Z,1.50
2022-07-28T08:09:20.096Z,1.60
2022-07-28T08:11:46.542Z,1.52
2022-07-28T08:14:13.298Z,1.60
2022-07-28T08:16:40.006Z,1.35
2022-07-28T08:19:06.582Z,1.33
2022-07-28T08:21:35.363Z,1.52
2022-07-28T08:24:01.809Z,1.55
2022-07-28T08:26:31.162Z,1.38
2022-07-28T08:28:57.616Z,1.48
2022-07-28T08:31:24.231Z,1.77
2022-07-28T08:33:53.940Z,1.52
2022-07-28T08:36:21.892Z,1.80
2022-07-28T08:38:48.362Z,1.95
2022-07-28T08:41:23.543Z,1.80
2022-07-28T08:43:52.650Z,1.60
2022-07-28T08:48:47.673Z,1.85
2022-07-28T08:51:15.160Z,1.75
2022-07-28T08:53:42.803Z,1.70
2022-07-28T08:56:12.712Z,1.63
2022-07-28T08:58:39.448Z,2.08
2022-07-28T09:01:08.463Z,1.80
2022-07-28T09:03:35.137Z,1.70
2022-07-28T09:06:01.953Z,1.65
2022-07-28T09:08:28.461Z,1.70
2022-07-28T09:10:55.266Z,1.70
2022-07-28T09:13:22.103Z,1.60
2022-07-28T09:15:48.617Z,1.50
2022-07-28T09:18:16.474Z,2.00
2022-07-28T09:20:43.969Z,2.03
2022-07-28T09:23:42.678Z,1.50
2022-07-28T09:26:12.109Z,2.03
2022-07-28T09:28:58.268Z,1.60
2022-07-28T09:31:27.459Z,1.75
2022-07-28T09:33:56.642Z,1.70
2022-07-28T09:38:49.598Z,1.95
2022-07-28T09:41:18.905Z,1.75
2022-07-28T09:43:49.769Z,1.88
2022-07-28T09:46:22.781Z,1.30
2022-07-28T09:48:49.627Z,1.80
2022-07-28T09:51:18.449Z,1.55
2022-07-28T09:53:45.234Z,1.67
2022-07-28T09:56:12.901Z,1.48
2022-07-28T09:58:40.063Z,1.45
2022-07-28T10:01:15.530Z,1.85
2022-07-28T10:03:43.482Z,1.63
2022-07-28T10:06:15.331Z,1.50
2022-07-28T10:08:46.695Z,1.70
2022-07-28T10:11:15.607Z,1.58
2022-07-28T10:14:13.585Z,1.63
2022-07-28T10:16:44.301Z,1.40
2022-07-28T10:19:10.792Z,1.50
2022-07-28T10:21:44.312Z,1.80
2022-07-28T10:24:15.066Z,1.50
2022-07-28T10:26:45.904Z,1.45
2022-07-28T10:29:14.434Z,1.58
2022-07-28T10:31:55.682Z,1.70
2022-07-28T10:34:25.519Z,1.33
2022-07-28T10:36:55.843Z,1.60
2022-07-28T10:39:24.162Z,1.60
2022-07-28T10:41:50.967Z,1.70
2022-07-28T10:44:19.863Z,1.50
2022-07-28T10:46:47.138Z,1.45
2022-07-28T10:49:14.339Z,1.17
2022-07-28T10:52:00.148Z,1.30
2022-07-28T10:54:30.067Z,1.48
2022-07-28T10:56:59.031Z,1.10
2022-07-28T10:59:58.611Z,1.30
2022-07-28T11:02:45.334Z,1.50
2022-07-28T11:05:26.415Z,1.38
2022-07-28T11:07:53.025Z,1.20
2022-07-28T11:10:20.373Z,1.45
2022-07-28T11:12:49.004Z,1.23
2022-07-28T11:15:28.316Z,1.20
2022-07-28T11:18:04.877Z,1.38
2022-07-28T11:20:53.333Z,1.35
2022-07-28T11:23:38.574Z,1.10
2022-07-28T11:26:20.625Z,1.15
2022-07-28T11:29:08.423Z,1.40
2022-07-28T11:31:43.850Z,1.23
2022-07-28T11:34:14.611Z,1.10
2022-07-28T11:37:05.393Z,1.35
2022-07-28T11:39:42.691Z,1.20
2022-07-28T11:42:30.700Z,1.70
2022-07-28T11:45:24.349Z,1.10
2022-07-28T11:48:15.745Z,1.08
2022-07-28T11:50:42.768Z,1.33
2022-07-28T11:53:10.096Z,1.23
2022-07-28T11:55:55.663Z,1.30
2022-07-28T11:58:25.511Z,1.10
2022-07-28T12:01:13.353Z,1.52
2022-07-28T12:03:50.233Z,1.27
2022-07-28T12:06:26.231Z,1.13
2022-07-28T12:09:02.109Z,1.30
2022-07-28T12:11:33.261Z,1.83
2022-07-28T12:14:00.601Z,1.70
2022-07-28T12:16:28.170Z,1.15
2022-07-28T12:18:55.177Z,1.40
2022-07-28T12:21:46.040Z,1.50
2022-07-28T12:24:16.572Z,1.40
2022-07-28T12:26:49.195Z,1.40
2022-07-28T12:29:16.880Z,1.10
2022-07-28T12:31:54.333Z,1.13
2022-07-28T12:34:21.203Z,1.20
2022-07-28T12:36:51.180Z,1.40
2022-07-28T12:39:17.886Z,1.20
2022-07-28T12:41:44.501Z,1.35
2022-07-28T12:44:12.083Z,1.17
2022-07-28T12:46:38.889Z,1.87
2022-07-28T12:49:20.482Z,1.33
2022-07-28T12:51:47.259Z,1.40
2022-07-28T12:54:14.647Z,1.60
2022-07-28T12:56:48.988Z,1.40
2022-07-28T12:59:15.944Z,1.50
2022-07-28T13:01:50.508Z,1.38
2022-07-28T13:04:36.683Z,1.25
2022-07-28T13:07:09.577Z,1.20
2022-07-28T13:09:39.555Z,1.40
2022-07-28T13:12:36.469Z,1.50
2022-07-28T13:15:16.033Z,1.30
2022-07-28T13:17:50.590Z,1.30
2022-07-28T13:20:17.158Z,1.50
2022-07-28T13:22:46.620Z,1.25
2022-07-28T13:25:13.879Z,1.50
2022-07-28T13:27:40.691Z,1.30
2022-07-28T13:30:09.782Z,1.23
2022-07-28T13:32:36.485Z,1.40
2022-07-28T13:35:04.347Z,1.45
2022-07-28T13:37:30.799Z,1.38
2022-07-28T13:39:57.364Z,1.33
2022-07-28T13:42:23.965Z,1.40
2022-07-28T13:44:50.555Z,1.42
2022-07-28T13:47:17.961Z,1.50
2022-07-28T13:49:44.434Z,1.58
2022-07-28T13:52:17.040Z,1.30
2022-07-28T13:54:55.952Z,1.40
2022-07-28T13:57:22.403Z,1.35
2022-07-28T13:59:49.013Z,1.42
2022-07-28T14:02:16.318Z,1.75
2022-07-28T14:04:46.092Z,1.50
2022-07-28T14:07:21.354Z,1.40
2022-07-28T14:09:50.038Z,1.48
2022-07-28T14:12:16.756Z,1.50
2022-07-28T14:14:48.545Z,1.52
2022-07-28T14:17:39.977Z,1.45
2022-07-28T14:20:03.484Z,1.52
2022-07-28T14:22:29.928Z,1.65
2022-07-28T14:24:56.383Z,1.60
2022-07-28T14:27:28.652Z,1.55
2022-07-28T14:29:55.729Z,1.50
2022-07-28T14:32:22.615Z,1.52
2022-07-28T14:34:49.155Z,1.60
2022-07-28T14:37:15.620Z,1.48
2022-07-28T14:39:42.227Z,2.10
2022-07-28T14:42:10.236Z,1.40
2022-07-28T14:44:36.677Z,1.52
2022-07-28T14:47:03.469Z,1.50
2022-07-28T14:49:30.031Z,1.42
2022-07-28T14:51:57.464Z,1.50
2022-07-28T14:54:23.930Z,1.40
2022-07-28T14:56:50.404Z,1.30
2022-07-28T14:59:16.859Z,1.60
2022-07-28T15:01:43.465Z,1.48
2022-07-28T15:04:12.382Z,1.67
2022-07-28T15:06:40.344Z,1.50
2022-07-28T15:09:06.826Z,1.40
2022-07-28T15:11:33.266Z,1.50
2022-07-28T15:13:59.801Z,1.25
2022-07-28T15:16:26.392Z,1.33
2022-07-28T15:18:53.234Z,1.50
2022-07-28T15:21:19.856Z,1.70
2022-07-28T15:23:46.296Z,1.60
2022-07-28T15:26:12.939Z,1.35
2022-07-28T15:28:39.690Z,1.45
2022-07-28T15:31:08.410Z,1.80
2022-07-28T15:33:38.952Z,1.50
2022-07-28T15:36:14.511Z,1.45
2022-07-28T15:38:40.955Z,1.50
2022-07-28T15:41:07.485Z,1.83
2022-07-28T15:43:33.985Z,1.30
2022-07-28T15:46:04.478Z,1.67
2022-07-28T15:48:31.005Z,1.50
2022-07-28T15:50:57.651Z,1.50
2022-07-28T15:53:24.248Z,1.50
2022-07-28T15:55:51.915Z,1.45
2022-07-28T15:58:19.446Z,1.42
2022-07-28T16:00:46.080Z,1.67
2022-07-28T16:03:12.912Z,1.15
2022-07-28T16:05:39.683Z,1.58
2022-07-28T16:08:06.277Z,1.42
2022-07-28T16:10:32.885Z,1.70
2022-07-28T16:12:59.350Z,1.40
2022-07-28T16:15:26.891Z,1.30
2022-07-28T16:17:54.287Z,1.70
2022-07-28T16:20:20.822Z,1.45
2022-07-28T16:22:47.512Z,1.70
2022-07-28T16:25:16.914Z,1.38
2022-07-28T16:27:44.465Z,1.27
2022-07-28T16:30:11.486Z,1.55
2022-07-28T16:32:38.580Z,1.20
2022-07-28T16:35:06.642Z,1.40
2022-07-28T16:37:35.057Z,1.30
2022-07-28T16:40:03.372Z,1.58
2022-07-28T16:42:29.822Z,1.35
2022-07-28T16:44:56.529Z,1.20
2022-07-28T16:47:23.109Z,1.50
2022-07-28T16:49:49.556Z,1.38
2022-07-28T16:52:16.015Z,1.30
2022-07-28T16:54:42.835Z,1.55
2022-07-28T16:57:09.405Z,1.50
2022-07-28T16:59:37.075Z,1.05
2022-07-28T17:02:14.356Z,1.15
2022-07-28T17:04:40.833Z,1.40
2022-07-28T17:07:08.189Z,1.50
2022-07-28T17:09:34.651Z,1.50
2022-07-28T17:12:01.100Z,1.40
2022-07-28T17:14:27.592Z,1.45
2022-07-28T17:16:54.196Z,1.30
2022-07-28T17:19:22.045Z,1.50
2022-07-28T17:21:48.588Z,1.60
2022-07-28T17:24:15.794Z,1.20
2022-07-28T17:27:35.363Z,1.50
2022-07-28T17:29:29.522Z,1.50
2022-07-28T17:31:56.087Z,1.55
2022-07-28T17:34:22.549Z,1.40
2022-07-28T17:36:50.836Z,1.27
2022-07-28T17:39:17.283Z,1.60
2022-07-28T17:41:43.724Z,1.60
2022-07-28T17:44:10.224Z,1.30
2022-07-28T17:46:36.786Z,1.33
2022-07-28T17:49:05.113Z,1.40
2022-07-28T17:51:32.081Z,1.40
2022-07-28T17:53:58.524Z,1.60
2022-07-28T17:56:25.967Z,1.45
2022-07-28T17:58:52.559Z,1.88
2022-07-28T18:01:19.046Z,1.98
2022-07-28T18:03:58.832Z,1.38
2022-07-28T18:06:28.783Z,1.30
2022-07-28T18:08:55.213Z,1.43
2022-07-28T18:11:21.814Z,1.50
2022-07-28T18:14:03.840Z,1.63
2022-07-28T18:16:34.784Z,1.73
2022-07-28T18:19:02.204Z,1.48
2022-07-28T18:21:28.735Z,1.33
2022-07-28T18:23:55.193Z,1.48
2022-07-28T18:26:21.985Z,1.27
2022-07-28T18:28:48.688Z,1.30
2022-07-28T18:31:15.192Z,1.60
2022-07-28T18:33:41.770Z,1.45
2022-07-28T18:36:08.244Z,1.58
2022-07-28T18:38:34.695Z,1.63
2022-07-28T18:41:01.142Z,1.30
2022-07-28T18:43:27.743Z,1.33
2022-07-28T18:45:54.417Z,1.42
2022-07-28T18:48:21.000Z,1.60
2022-07-28T18:50:47.434Z,1.40
2022-07-28T18:53:13.886Z,1.58
2022-07-28T18:55:40.337Z,1.25
2022-07-28T18:58:06.855Z,1.58
2022-07-28T19:00:33.705Z,1.58
2022-07-28T19:03:00.288Z,1.38
2022-07-28T19:05:27.142Z,1.50
2022-07-28T19:08:04.298Z,1.50
2022-07-28T19:10:32.076Z,1.55
2022-07-28T19:12:58.524Z,1.55
2022-07-28T19:15:25.014Z,1.70
2022-07-28T19:18:10.576Z,1.60
2022-07-28T19:20:40.844Z,1.88
2022-07-28T19:23:07.280Z,1.77
2022-07-28T19:25:35.856Z,1.73
2022-07-28T19:28:02.689Z,1.95
2022-07-28T19:30:31.854Z,1.50
2022-07-28T19:32:58.330Z,1.60
2022-07-28T19:35:24.799Z,1.70
2022-07-28T19:37:51.660Z,1.83
2022-07-28T19:40:48.065Z,1.45
2022-07-28T20:33:01.344Z,1.95
2022-07-28T20:35:53.231Z,1.52
2022-07-28T20:38:23.266Z,1.90
2022-07-28T20:40:51.669Z,1.52
2022-07-28T20:43:36.404Z,1.90
2022-07-28T20:46:05.596Z,1.52
2022-07-28T20:48:36.435Z,1.50
2022-07-28T20:51:05.072Z,1.75
2022-07-28T20:53:33.078Z,1.83
2022-07-28T20:56:02.510Z,1.48
2022-07-28T20:58:29.268Z,1.90
2022-07-28T21:00:57.428Z,1.55
2022-07-28T21:03:25.354Z,1.38
2022-07-28T21:05:52.015Z,1.65
2022-07-28T21:08:18.721Z,1.80
2022-07-28T21:10:45.757Z,1.60
2022-07-28T21:13:12.412Z,2.10
2022-07-28T21:15:39.523Z,1.40
2022-07-28T21:18:06.166Z,1.90
2022-07-28T21:20:33.100Z,1.60
2022-07-28T21:22:59.641Z,1.60
2022-07-28T21:25:26.286Z,1.90
2022-07-28T21:28:11.710Z,1.70
2022-07-28T21:30:38.561Z,1.63
2022-07-28T21:33:05.416Z,1.80
2022-07-28T21:35:32.002Z,1.50
2022-07-28T21:37:58.505Z,1.63
2022-07-28T21:40:25.717Z,1.45
2022-07-28T21:42:52.671Z,1.77
2022-07-28T21:45:19.282Z,1.33
2022-07-28T21:47:46.035Z,1.90
2022-07-28T21:50:12.807Z,1.88
2022-07-28T21:52:39.562Z,1.80
2022-07-28T21:55:08.489Z,1.77
2022-07-28T21:57:35.645Z,1.70
2022-07-28T22:00:03.624Z,1.42
2022-07-28T22:02:32.394Z,1.52
2022-07-28T22:04:59.422Z,1.77
2022-07-28T22:07:25.954Z,1.70
2022-07-28T22:09:52.621Z,1.63
2022-07-28T22:12:19.560Z,1.55
2022-07-28T22:14:46.050Z,1.60
2022-07-28T22:17:12.704Z,1.48
2022-07-28T22:19:39.518Z,1.63
2022-07-28T22:22:06.022Z,1.33
2022-07-28T22:24:32.546Z,1.60
2022-07-28T22:26:59.423Z,1.50
2022-07-28T22:29:26.044Z,1.50
2022-07-28T22:31:57.287Z,1.55
2022-07-28T22:34:25.890Z,1.48
2022-07-28T22:36:52.375Z,1.75
2022-07-28T22:39:18.925Z,2.20
2022-07-28T22:41:46.976Z,1.60
2022-07-28T22:44:13.899Z,1.80
2022-07-28T22:46:41.055Z,1.60
2022-07-28T22:49:07.731Z,1.80
2022-07-28T22:51:34.352Z,1.60
2022-07-28T22:54:02.340Z,1.85
2022-07-28T22:56:36.366Z,1.60
2022-07-28T22:59:04.239Z,1.70
2022-07-28T23:01:30.913Z,1.70
2022-07-28T23:03:58.309Z,1.83
2022-07-28T23:06:24.976Z,1.65
2022-07-28T23:08:51.484Z,1.40
2022-07-28T23:11:17.933Z,1.50
2022-07-28T23:13:44.464Z,1.45
2022-07-28T23:16:12.137Z,1.75
2022-07-28T23:18:44.830Z,1.30
2022-07-28T23:21:37.649Z,1.42
2022-07-28T23:24:04.983Z,1.52
2022-07-28T23:26:34.668Z,1.50
2022-07-28T23:29:01.185Z,1.40
2022-07-28T23:31:27.753Z,1.42
2022-07-28T23:33:57.557Z,1.60
2022-07-28T23:36:26.854Z,1.92
2022-07-28T23:38:55.956Z,1.77
2022-07-28T23:41:22.535Z,1.42
2022-07-28T23:43:49.013Z,1.75
2022-07-28T23:46:15.538Z,1.48
2022-07-28T23:48:42.464Z,1.85
2022-07-28T23:51:09.577Z,1.65
2022-07-28T23:53:37.326Z,1.90
2022-07-28T23:56:04.051Z,1.63
2022-07-28T23:58:30.544Z,1.30
